sensor_id;sensor_type;location;lat;lon;timestamp;P1;durP1;ratioP1;P2;durP2;ratioP2
4106;SDS011;21906;50.812;7.132;2023-08-17T00:00:09;12.70;;;11.37;;
4106;SDS011;21906;50.812;7.132;2023-08-17T00:02:42;12.13;;;10.80;;
4106;SDS011;21906;50.812;7.132;2023-08-17T00:05:07;11.47;;;9.97;;
4106;SDS011;21906;50.812;7.132;2023-08-17T00:07:34;13.07;;;11.87;;
4106;SDS011;21906;50.812;7.132;2023-08-17T00:09:59;11.53;;;10.60;;
4106;SDS011;21906;50.812;7.132;2023-08-17T00:12:25;12.30;;;11.00;;
4106;SDS011;21906;50.812;7.132;2023-08-17T00:14:51;13.50;;;12.20;;
4106;SDS011;21906;50.812;7.132;2023-08-17T00:17:18;12.60;;;11.30;;
4106;SDS011;21906;50.812;7.132;2023-08-17T00:19:44;12.83;;;11.60;;
4106;SDS011;21906;50.812;7.132;2023-08-17T00:22:10;11.47;;;10.30;;
4106;SDS011;21906;50.812;7.132;2023-08-17T00:24:35;12.00;;;10.80;;
4106;SDS011;21906;50.812;7.132;2023-08-17T00:27:01;13.93;;;11.53;;
4106;SDS011;21906;50.812;7.132;2023-08-17T00:29:28;12.40;;;11.30;;
4106;SDS011;21906;50.812;7.132;2023-08-17T00:31:54;13.00;;;11.60;;
4106;SDS011;21906;50.812;7.132;2023-08-17T00:34:20;15.40;;;11.80;;
4106;SDS011;21906;50.812;7.132;2023-08-17T00:36:45;12.97;;;11.67;;
4106;SDS011;21906;50.812;7.132;2023-08-17T00:39:11;13.83;;;12.53;;
4106;SDS011;21906;50.812;7.132;2023-08-17T00:41:37;13.47;;;11.50;;
4106;SDS011;21906;50.812;7.132;2023-08-17T00:44:02;14.07;;;12.67;;
4106;SDS011;21906;50.812;7.132;2023-08-17T00:46:28;13.37;;;11.87;;
4106;SDS011;21906;50.812;7.132;2023-08-17T00:48:55;14.57;;;13.20;;
4106;SDS011;21906;50.812;7.132;2023-08-17T00:51:22;16.37;;;14.60;;
4106;SDS011;21906;50.812;7.132;2023-08-17T00:53:56;16.30;;;14.60;;
4106;SDS011;21906;50.812;7.132;2023-08-17T00:56:24;16.07;;;11.67;;
4106;SDS011;21906;50.812;7.132;2023-08-17T00:58:50;14.70;;;13.20;;
4106;SDS011;21906;50.812;7.132;2023-08-17T01:01:16;14.03;;;12.73;;
4106;SDS011;21906;50.812;7.132;2023-08-17T01:03:42;12.63;;;11.40;;
4106;SDS011;21906;50.812;7.132;2023-08-17T01:06:08;14.43;;;12.93;;
4106;SDS011;21906;50.812;7.132;2023-08-17T01:08:35;14.70;;;11.70;;
4106;SDS011;21906;50.812;7.132;2023-08-17T01:11:04;16.80;;;11.73;;
4106;SDS011;21906;50.812;7.132;2023-08-17T01:13:47;12.80;;;11.60;;
4106;SDS011;21906;50.812;7.132;2023-08-17T01:16:29;13.47;;;12.23;;
4106;SDS011;21906;50.812;7.132;2023-08-17T01:19:08;13.53;;;12.07;;
4106;SDS011;21906;50.812;7.132;2023-08-17T01:21:44;14.10;;;12.70;;
4106;SDS011;21906;50.812;7.132;2023-08-17T01:24:15;13.60;;;12.27;;
4106;SDS011;21906;50.812;7.132;2023-08-17T01:26:40;13.00;;;11.70;;
4106;SDS011;21906;50.812;7.132;2023-08-17T01:29:06;12.70;;;11.33;;
4106;SDS011;21906;50.812;7.132;2023-08-17T01:31:36;11.93;;;10.73;;
4106;SDS011;21906;50.812;7.132;2023-08-17T01:34:13;14.60;;;13.20;;
4106;SDS011;21906;50.812;7.132;2023-08-17T01:36:45;13.93;;;12.60;;
4106;SDS011;21906;50.812;7.132;2023-08-17T01:39:16;13.00;;;11.70;;
4106;SDS011;21906;50.812;7.132;2023-08-17T01:41:42;13.67;;;12.20;;
4106;SDS011;21906;50.812;7.132;2023-08-17T01:44:11;12.00;;;10.80;;
4106;SDS011;21906;50.812;7.132;2023-08-17T01:46:37;14.60;;;13.20;;
4106;SDS011;21906;50.812;7.132;2023-08-17T01:49:04;14.83;;;13.33;;
4106;SDS011;21906;50.812;7.132;2023-08-17T01:51:30;13.97;;;12.57;;
4106;SDS011;21906;50.812;7.132;2023-08-17T01:53:56;15.53;;;12.80;;
4106;SDS011;21906;50.812;7.132;2023-08-17T01:56:22;18.53;;;14.23;;
4106;SDS011;21906;50.812;7.132;2023-08-17T01:58:47;13.90;;;12.40;;
4106;SDS011;21906;50.812;7.132;2023-08-17T02:01:13;14.37;;;13.00;;
4106;SDS011;21906;50.812;7.132;2023-08-17T02:03:38;13.37;;;12.00;;
4106;SDS011;21906;50.812;7.132;2023-08-17T02:06:04;12.67;;;11.53;;
4106;SDS011;21906;50.812;7.132;2023-08-17T02:08:30;15.10;;;12.03;;
4106;SDS011;21906;50.812;7.132;2023-08-17T02:10:55;13.93;;;12.70;;
4106;SDS011;21906;50.812;7.132;2023-08-17T02:13:21;15.50;;;13.90;;
4106;SDS011;21906;50.812;7.132;2023-08-17T02:15:47;15.20;;;13.63;;
4106;SDS011;21906;50.812;7.132;2023-08-17T02:18:12;12.53;;;11.43;;
4106;SDS011;21906;50.812;7.132;2023-08-17T02:20:38;16.57;;;14.27;;
4106;SDS011;21906;50.812;7.132;2023-08-17T02:23:04;17.40;;;15.50;;
4106;SDS011;21906;50.812;7.132;2023-08-17T02:25:29;20.57;;;17.53;;
4106;SDS011;21906;50.812;7.132;2023-08-17T02:28:00;17.27;;;15.47;;
4106;SDS011;21906;50.812;7.132;2023-08-17T02:30:27;26.20;;;18.03;;
4106;SDS011;21906;50.812;7.132;2023-08-17T02:32:53;22.87;;;18.70;;
4106;SDS011;21906;50.812;7.132;2023-08-17T02:35:18;29.83;;;17.80;;
4106;SDS011;21906;50.812;7.132;2023-08-17T02:37:44;21.10;;;17.43;;
4106;SDS011;21906;50.812;7.132;2023-08-17T02:40:10;19.63;;;16.10;;
4106;SDS011;21906;50.812;7.132;2023-08-17T02:42:35;22.97;;;17.43;;
4106;SDS011;21906;50.812;7.132;2023-08-17T02:45:01;22.47;;;16.40;;
4106;SDS011;21906;50.812;7.132;2023-08-17T02:47:27;22.27;;;15.57;;
4106;SDS011;21906;50.812;7.132;2023-08-17T02:49:53;23.03;;;15.13;;
4106;SDS011;21906;50.812;7.132;2023-08-17T02:52:19;23.90;;;15.80;;
4106;SDS011;21906;50.812;7.132;2023-08-17T02:54:44;17.60;;;15.50;;
4106;SDS011;21906;50.812;7.132;2023-08-17T02:57:10;19.17;;;15.40;;
4106;SDS011;21906;50.812;7.132;2023-08-17T02:59:36;15.47;;;13.70;;
4106;SDS011;21906;50.812;7.132;2023-08-17T03:02:02;15.93;;;13.03;;
4106;SDS011;21906;50.812;7.132;2023-08-17T03:04:28;13.67;;;11.90;;
4106;SDS011;21906;50.812;7.132;2023-08-17T03:06:53;17.00;;;11.70;;
4106;SDS011;21906;50.812;7.132;2023-08-17T03:09:19;12.90;;;11.80;;
4106;SDS011;21906;50.812;7.132;2023-08-17T03:11:44;13.87;;;11.93;;
4106;SDS011;21906;50.812;7.132;2023-08-17T03:14:10;16.73;;;12.07;;
4106;SDS011;21906;50.812;7.132;2023-08-17T03:16:36;13.00;;;11.80;;
4106;SDS011;21906;50.812;7.132;2023-08-17T03:19:01;10.37;;;9.50;;
4106;SDS011;21906;50.812;7.132;2023-08-17T03:21:28;13.53;;;12.20;;
4106;SDS011;21906;50.812;7.132;2023-08-17T03:23:53;11.13;;;10.13;;
4106;SDS011;21906;50.812;7.132;2023-08-17T03:26:19;12.37;;;10.87;;
4106;SDS011;21906;50.812;7.132;2023-08-17T03:28:45;11.27;;;10.17;;
4106;SDS011;21906;50.812;7.132;2023-08-17T03:31:10;9.60;;;8.90;;
4106;SDS011;21906;50.812;7.132;2023-08-17T03:33:36;11.90;;;10.90;;
4106;SDS011;21906;50.812;7.132;2023-08-17T03:36:02;11.83;;;10.80;;
4106;SDS011;21906;50.812;7.132;2023-08-17T03:38:28;10.67;;;9.67;;
4106;SDS011;21906;50.812;7.132;2023-08-17T03:40:54;11.67;;;10.53;;
4106;SDS011;21906;50.812;7.132;2023-08-17T03:43:19;11.50;;;10.50;;
4106;SDS011;21906;50.812;7.132;2023-08-17T03:45:45;12.30;;;10.53;;
4106;SDS011;21906;50.812;7.132;2023-08-17T03:48:10;11.77;;;10.67;;
4106;SDS011;21906;50.812;7.132;2023-08-17T03:50:37;11.27;;;10.10;;
4106;SDS011;21906;50.812;7.132;2023-08-17T03:53:03;10.77;;;9.83;;
4106;SDS011;21906;50.812;7.132;2023-08-17T03:55:29;10.40;;;9.50;;
4106;SDS011;21906;50.812;7.132;2023-08-17T03:57:54;11.27;;;10.27;;
4106;SDS011;21906;50.812;7.132;2023-08-17T04:00:20;11.40;;;10.47;;
4106;SDS011;21906;50.812;7.132;2023-08-17T04:02:45;12.40;;;11.30;;
4106;SDS011;21906;50.812;7.132;2023-08-17T04:05:11;11.27;;;10.27;;
4106;SDS011;21906;50.812;7.132;2023-08-17T04:07:37;12.07;;;10.77;;
4106;SDS011;21906;50.812;7.132;2023-08-17T04:10:04;11.00;;;10.10;;
4106;SDS011;21906;50.812;7.132;2023-08-17T04:12:30;11.97;;;10.97;;
4106;SDS011;21906;50.812;7.132;2023-08-17T04:14:56;12.10;;;11.00;;
4106;SDS011;21906;50.812;7.132;2023-08-17T04:17:22;13.00;;;11.70;;
4106;SDS011;21906;50.812;7.132;2023-08-17T04:19:47;12.20;;;11.00;;
4106;SDS011;21906;50.812;7.132;2023-08-17T04:22:13;11.50;;;10.57;;
4106;SDS011;21906;50.812;7.132;2023-08-17T04:24:39;11.30;;;10.20;;
4106;SDS011;21906;50.812;7.132;2023-08-17T04:27:04;10.00;;;9.00;;
4106;SDS011;21906;50.812;7.132;2023-08-17T04:29:30;9.30;;;8.50;;
4106;SDS011;21906;50.812;7.132;2023-08-17T04:31:56;10.07;;;9.23;;
4106;SDS011;21906;50.812;7.132;2023-08-17T04:34:22;9.33;;;8.43;;
4106;SDS011;21906;50.812;7.132;2023-08-17T04:36:49;10.90;;;9.90;;
4106;SDS011;21906;50.812;7.132;2023-08-17T04:39:14;10.20;;;9.20;;
4106;SDS011;21906;50.812;7.132;2023-08-17T04:41:40;12.20;;;9.23;;
4106;SDS011;21906;50.812;7.132;2023-08-17T04:44:06;9.83;;;8.93;;
4106;SDS011;21906;50.812;7.132;2023-08-17T04:46:32;11.40;;;10.23;;
4106;SDS011;21906;50.812;7.132;2023-08-17T04:48:57;10.77;;;9.50;;
4106;SDS011;21906;50.812;7.132;2023-08-17T04:51:23;11.93;;;9.47;;
4106;SDS011;21906;50.812;7.132;2023-08-17T04:53:48;10.50;;;9.50;;
4106;SDS011;21906;50.812;7.132;2023-08-17T04:56:14;15.43;;;10.50;;
4106;SDS011;21906;50.812;7.132;2023-08-17T04:58:40;10.47;;;9.47;;
4106;SDS011;21906;50.812;7.132;2023-08-17T05:01:05;10.37;;;9.43;;
4106;SDS011;21906;50.812;7.132;2023-08-17T05:03:31;12.57;;;10.40;;
4106;SDS011;21906;50.812;7.132;2023-08-17T05:05:56;11.37;;;10.40;;
4106;SDS011;21906;50.812;7.132;2023-08-17T05:08:22;15.30;;;10.70;;
4106;SDS011;21906;50.812;7.132;2023-08-17T05:10:48;9.00;;;8.40;;
4106;SDS011;21906;50.812;7.132;2023-08-17T05:13:14;10.23;;;9.23;;
4106;SDS011;21906;50.812;7.132;2023-08-17T05:15:39;9.20;;;8.20;;
4106;SDS011;21906;50.812;7.132;2023-08-17T05:18:05;8.90;;;8.23;;
4106;SDS011;21906;50.812;7.132;2023-08-17T05:20:31;11.57;;;8.37;;
4106;SDS011;21906;50.812;7.132;2023-08-17T05:22:56;9.43;;;8.53;;
4106;SDS011;21906;50.812;7.132;2023-08-17T05:25:22;10.13;;;9.20;;
4106;SDS011;21906;50.812;7.132;2023-08-17T05:27:48;9.87;;;9.07;;
4106;SDS011;21906;50.812;7.132;2023-08-17T05:30:16;10.37;;;9.33;;
4106;SDS011;21906;50.812;7.132;2023-08-17T05:32:42;9.93;;;9.23;;
4106;SDS011;21906;50.812;7.132;2023-08-17T05:35:08;9.83;;;9.13;;
4106;SDS011;21906;50.812;7.132;2023-08-17T05:37:34;11.03;;;9.53;;
4106;SDS011;21906;50.812;7.132;2023-08-17T05:39:59;10.00;;;9.20;;
4106;SDS011;21906;50.812;7.132;2023-08-17T05:42:25;11.80;;;9.80;;
4106;SDS011;21906;50.812;7.132;2023-08-17T05:44:51;12.60;;;11.40;;
4106;SDS011;21906;50.812;7.132;2023-08-17T05:47:16;13.10;;;11.77;;
4106;SDS011;21906;50.812;7.132;2023-08-17T05:49:44;12.57;;;11.47;;
4106;SDS011;21906;50.812;7.132;2023-08-17T05:52:09;12.23;;;11.10;;
4106;SDS011;21906;50.812;7.132;2023-08-17T05:54:35;11.40;;;10.30;;
4106;SDS011;21906;50.812;7.132;2023-08-17T05:57:01;10.87;;;9.97;;
4106;SDS011;21906;50.812;7.132;2023-08-17T05:59:27;10.87;;;9.87;;
4106;SDS011;21906;50.812;7.132;2023-08-17T06:01:52;10.80;;;9.90;;
4106;SDS011;21906;50.812;7.132;2023-08-17T06:04:18;10.27;;;9.20;;
4106;SDS011;21906;50.812;7.132;2023-08-17T06:06:45;11.93;;;11.03;;
4106;SDS011;21906;50.812;7.132;2023-08-17T06:09:11;11.53;;;10.03;;
4106;SDS011;21906;50.812;7.132;2023-08-17T06:11:37;11.43;;;10.43;;
4106;SDS011;21906;50.812;7.132;2023-08-17T06:14:03;10.70;;;9.73;;
4106;SDS011;21906;50.812;7.132;2023-08-17T06:16:29;10.80;;;9.70;;
4106;SDS011;21906;50.812;7.132;2023-08-17T06:18:55;18.80;;;11.80;;
4106;SDS011;21906;50.812;7.132;2023-08-17T06:21:21;12.07;;;11.03;;
4106;SDS011;21906;50.812;7.132;2023-08-17T06:23:46;13.20;;;11.83;;
4106;SDS011;21906;50.812;7.132;2023-08-17T06:26:12;13.27;;;11.80;;
4106;SDS011;21906;50.812;7.132;2023-08-17T06:28:38;12.10;;;10.80;;
4106;SDS011;21906;50.812;7.132;2023-08-17T06:31:04;11.90;;;10.73;;
4106;SDS011;21906;50.812;7.132;2023-08-17T06:33:29;13.87;;;10.90;;
4106;SDS011;21906;50.812;7.132;2023-08-17T06:35:55;13.90;;;12.47;;
4106;SDS011;21906;50.812;7.132;2023-08-17T06:38:21;13.90;;;12.50;;
4106;SDS011;21906;50.812;7.132;2023-08-17T06:40:46;12.97;;;11.70;;
4106;SDS011;21906;50.812;7.132;2023-08-17T06:43:13;12.37;;;11.20;;
4106;SDS011;21906;50.812;7.132;2023-08-17T06:45:38;12.93;;;11.10;;
4106;SDS011;21906;50.812;7.132;2023-08-17T06:48:04;14.43;;;13.00;;
4106;SDS011;21906;50.812;7.132;2023-08-17T06:50:30;14.67;;;12.63;;
4106;SDS011;21906;50.812;7.132;2023-08-17T06:52:56;14.80;;;11.50;;
4106;SDS011;21906;50.812;7.132;2023-08-17T06:55:21;13.03;;;10.93;;
4106;SDS011;21906;50.812;7.132;2023-08-17T06:57:47;11.60;;;10.60;;
4106;SDS011;21906;50.812;7.132;2023-08-17T07:00:16;19.00;;;11.90;;
4106;SDS011;21906;50.812;7.132;2023-08-17T07:02:45;12.30;;;11.03;;
4106;SDS011;21906;50.812;7.132;2023-08-17T07:05:12;12.03;;;10.40;;
4106;SDS011;21906;50.812;7.132;2023-08-17T07:07:39;14.40;;;12.53;;
4106;SDS011;21906;50.812;7.132;2023-08-17T07:10:05;13.50;;;12.23;;
4106;SDS011;21906;50.812;7.132;2023-08-17T07:12:32;14.03;;;11.40;;
4106;SDS011;21906;50.812;7.132;2023-08-17T07:14:58;15.13;;;12.07;;
4106;SDS011;21906;50.812;7.132;2023-08-17T07:17:23;14.50;;;11.73;;
4106;SDS011;21906;50.812;7.132;2023-08-17T07:19:49;16.23;;;12.50;;
4106;SDS011;21906;50.812;7.132;2023-08-17T07:22:14;15.20;;;11.47;;
4106;SDS011;21906;50.812;7.132;2023-08-17T07:24:41;14.60;;;11.47;;
4106;SDS011;21906;50.812;7.132;2023-08-17T07:27:07;17.50;;;12.50;;
4106;SDS011;21906;50.812;7.132;2023-08-17T07:29:33;17.63;;;13.17;;
4106;SDS011;21906;50.812;7.132;2023-08-17T07:31:58;18.40;;;12.63;;
4106;SDS011;21906;50.812;7.132;2023-08-17T07:34:27;15.90;;;13.10;;
4106;SDS011;21906;50.812;7.132;2023-08-17T07:36:53;18.13;;;13.97;;
4106;SDS011;21906;50.812;7.132;2023-08-17T07:39:18;16.90;;;12.27;;
4106;SDS011;21906;50.812;7.132;2023-08-17T07:41:44;21.43;;;16.23;;
4106;SDS011;21906;50.812;7.132;2023-08-17T07:44:10;16.60;;;12.97;;
4106;SDS011;21906;50.812;7.132;2023-08-17T07:46:36;20.80;;;14.90;;
4106;SDS011;21906;50.812;7.132;2023-08-17T07:49:02;21.17;;;14.10;;
4106;SDS011;21906;50.812;7.132;2023-08-17T07:51:28;17.33;;;13.57;;
4106;SDS011;21906;50.812;7.132;2023-08-17T07:53:56;18.13;;;13.63;;
4106;SDS011;21906;50.812;7.132;2023-08-17T07:56:22;15.80;;;12.47;;
4106;SDS011;21906;50.812;7.132;2023-08-17T07:58:48;14.63;;;12.13;;
4106;SDS011;21906;50.812;7.132;2023-08-17T08:01:14;18.40;;;13.67;;
4106;SDS011;21906;50.812;7.132;2023-08-17T08:03:39;14.17;;;12.67;;
4106;SDS011;21906;50.812;7.132;2023-08-17T08:06:05;13.97;;;12.40;;
4106;SDS011;21906;50.812;7.132;2023-08-17T08:08:31;19.73;;;14.13;;
4106;SDS011;21906;50.812;7.132;2023-08-17T08:10:56;13.87;;;12.37;;
4106;SDS011;21906;50.812;7.132;2023-08-17T08:13:23;18.83;;;15.17;;
4106;SDS011;21906;50.812;7.132;2023-08-17T08:15:49;14.37;;;12.77;;
4106;SDS011;21906;50.812;7.132;2023-08-17T08:18:14;14.10;;;12.70;;
4106;SDS011;21906;50.812;7.132;2023-08-17T08:20:40;19.60;;;14.13;;
4106;SDS011;21906;50.812;7.132;2023-08-17T08:23:06;18.40;;;13.87;;
4106;SDS011;21906;50.812;7.132;2023-08-17T08:25:32;20.80;;;14.00;;
4106;SDS011;21906;50.812;7.132;2023-08-17T08:27:57;21.60;;;13.80;;
4106;SDS011;21906;50.812;7.132;2023-08-17T08:30:23;17.00;;;12.60;;
4106;SDS011;21906;50.812;7.132;2023-08-17T08:32:48;16.77;;;12.20;;
4106;SDS011;21906;50.812;7.132;2023-08-17T08:35:15;17.30;;;12.87;;
4106;SDS011;21906;50.812;7.132;2023-08-17T08:37:40;17.33;;;12.80;;
4106;SDS011;21906;50.812;7.132;2023-08-17T08:40:07;13.40;;;12.00;;
4106;SDS011;21906;50.812;7.132;2023-08-17T08:42:37;12.87;;;11.07;;
4106;SDS011;21906;50.812;7.132;2023-08-17T08:45:03;16.20;;;12.00;;
4106;SDS011;21906;50.812;7.132;2023-08-17T08:47:29;18.67;;;12.43;;
4106;SDS011;21906;50.812;7.132;2023-08-17T08:50:00;17.60;;;11.77;;
4106;SDS011;21906;50.812;7.132;2023-08-17T08:52:31;13.63;;;12.23;;
4106;SDS011;21906;50.812;7.132;2023-08-17T08:54:59;12.73;;;9.83;;
4106;SDS011;21906;50.812;7.132;2023-08-17T08:57:35;14.80;;;11.80;;
4106;SDS011;21906;50.812;7.132;2023-08-17T09:00:02;11.63;;;10.53;;
4106;SDS011;21906;50.812;7.132;2023-08-17T09:02:29;10.47;;;9.40;;
4106;SDS011;21906;50.812;7.132;2023-08-17T09:04:55;11.40;;;9.70;;
4106;SDS011;21906;50.812;7.132;2023-08-17T09:07:22;12.90;;;9.60;;
4106;SDS011;21906;50.812;7.132;2023-08-17T09:09:49;10.77;;;9.53;;
4106;SDS011;21906;50.812;7.132;2023-08-17T09:12:15;10.10;;;9.07;;
4106;SDS011;21906;50.812;7.132;2023-08-17T09:14:41;11.37;;;10.17;;
4106;SDS011;21906;50.812;7.132;2023-08-17T09:17:07;13.27;;;11.87;;
4106;SDS011;21906;50.812;7.132;2023-08-17T09:19:33;14.30;;;11.80;;
4106;SDS011;21906;50.812;7.132;2023-08-17T09:21:59;20.20;;;14.47;;
4106;SDS011;21906;50.812;7.132;2023-08-17T09:24:35;18.30;;;13.10;;
4106;SDS011;21906;50.812;7.132;2023-08-17T09:27:02;12.10;;;10.83;;
4106;SDS011;21906;50.812;7.132;2023-08-17T09:29:28;14.80;;;11.93;;
4106;SDS011;21906;50.812;7.132;2023-08-17T09:32:05;20.20;;;14.60;;
4106;SDS011;21906;50.812;7.132;2023-08-17T09:34:35;19.73;;;14.90;;
4106;SDS011;21906;50.812;7.132;2023-08-17T09:37:04;17.77;;;13.10;;
4106;SDS011;21906;50.812;7.132;2023-08-17T09:39:30;16.93;;;12.40;;
4106;SDS011;21906;50.812;7.132;2023-08-17T09:41:56;14.67;;;11.80;;
4106;SDS011;21906;50.812;7.132;2023-08-17T09:44:22;15.23;;;11.60;;
4106;SDS011;21906;50.812;7.132;2023-08-17T09:46:47;16.80;;;11.87;;
4106;SDS011;21906;50.812;7.132;2023-08-17T09:49:13;13.57;;;11.53;;
4106;SDS011;21906;50.812;7.132;2023-08-17T09:51:42;13.53;;;11.60;;
4106;SDS011;21906;50.812;7.132;2023-08-17T09:54:18;15.30;;;11.70;;
4106;SDS011;21906;50.812;7.132;2023-08-17T09:56:47;17.23;;;14.03;;
4106;SDS011;21906;50.812;7.132;2023-08-17T09:59:15;12.30;;;11.10;;
4106;SDS011;21906;50.812;7.132;2023-08-17T10:01:40;13.13;;;11.20;;
4106;SDS011;21906;50.812;7.132;2023-08-17T10:04:08;15.60;;;13.37;;
4106;SDS011;21906;50.812;7.132;2023-08-17T10:06:35;11.87;;;10.67;;
4106;SDS011;21906;50.812;7.132;2023-08-17T10:09:04;16.63;;;13.20;;
4106;SDS011;21906;50.812;7.132;2023-08-17T10:11:31;13.77;;;12.40;;
4106;SDS011;21906;50.812;7.132;2023-08-17T10:14:02;13.93;;;11.70;;
4106;SDS011;21906;50.812;7.132;2023-08-17T10:16:40;11.97;;;10.70;;
4106;SDS011;21906;50.812;7.132;2023-08-17T10:19:25;15.17;;;11.30;;
4106;SDS011;21906;50.812;7.132;2023-08-17T10:24:45;11.40;;;10.33;;
4106;SDS011;21906;50.812;7.132;2023-08-17T10:27:12;12.57;;;11.37;;
4106;SDS011;21906;50.812;7.132;2023-08-17T10:29:39;14.00;;;11.57;;
4106;SDS011;21906;50.812;7.132;2023-08-17T10:32:05;12.80;;;11.60;;
4106;SDS011;21906;50.812;7.132;2023-08-17T10:34:34;12.53;;;11.30;;
4106;SDS011;21906;50.812;7.132;2023-08-17T10:37:01;14.53;;;11.73;;
4106;SDS011;21906;50.812;7.132;2023-08-17T10:39:28;13.67;;;12.43;;
4106;SDS011;21906;50.812;7.132;2023-08-17T10:41:55;17.63;;;12.40;;
4106;SDS011;21906;50.812;7.132;2023-08-17T10:47:19;13.07;;;11.87;;
4106;SDS011;21906;50.812;7.132;2023-08-17T10:50:38;12.50;;;10.93;;
4106;SDS011;21906;50.812;7.132;2023-08-17T10:52:47;12.50;;;11.30;;
4106;SDS011;21906;50.812;7.132;2023-08-17T10:55:14;15.17;;;11.07;;
4106;SDS011;21906;50.812;7.132;2023-08-17T10:57:40;12.60;;;11.30;;
4106;SDS011;21906;50.812;7.132;2023-08-17T11:00:14;9.90;;;9.00;;
4106;SDS011;21906;50.812;7.132;2023-08-17T11:02:44;11.80;;;10.70;;
4106;SDS011;21906;50.812;7.132;2023-08-17T11:05:22;9.13;;;8.33;;
4106;SDS011;21906;50.812;7.132;2023-08-17T11:07:59;8.80;;;8.17;;
4106;SDS011;21906;50.812;7.132;2023-08-17T11:12:52;12.23;;;11.03;;
4106;SDS011;21906;50.812;7.132;2023-08-17T11:15:22;13.50;;;11.67;;
4106;SDS011;21906;50.812;7.132;2023-08-17T11:17:49;16.77;;;11.63;;
4106;SDS011;21906;50.812;7.132;2023-08-17T11:20:14;12.40;;;11.10;;
4106;SDS011;21906;50.812;7.132;2023-08-17T11:22:40;12.80;;;11.47;;
4106;SDS011;21906;50.812;7.132;2023-08-17T11:25:06;14.80;;;12.30;;
4106;SDS011;21906;50.812;7.132;2023-08-17T11:27:32;13.47;;;12.17;;
4106;SDS011;21906;50.812;7.132;2023-08-17T11:29:58;12.63;;;11.30;;
4106;SDS011;21906;50.812;7.132;2023-08-17T11:32:24;13.30;;;11.90;;
4106;SDS011;21906;50.812;7.132;2023-08-17T11:34:50;12.80;;;11.17;;
4106;SDS011;21906;50.812;7.132;2023-08-17T11:37:16;12.37;;;11.17;;
4106;SDS011;21906;50.812;7.132;2023-08-17T11:39:42;12.10;;;10.90;;
4106;SDS011;21906;50.812;7.132;2023-08-17T11:42:08;11.27;;;10.17;;
4106;SDS011;21906;50.812;7.132;2023-08-17T11:44:33;11.90;;;10.77;;
4106;SDS011;21906;50.812;7.132;2023-08-17T11:46:59;11.90;;;10.80;;
4106;SDS011;21906;50.812;7.132;2023-08-17T11:49:25;12.40;;;10.03;;
4106;SDS011;21906;50.812;7.132;2023-08-17T11:51:51;13.43;;;11.50;;
4106;SDS011;21906;50.812;7.132;2023-08-17T11:54:17;11.17;;;10.10;;
4106;SDS011;21906;50.812;7.132;2023-08-17T11:56:42;10.60;;;9.50;;
4106;SDS011;21906;50.812;7.132;2023-08-17T11:59:08;11.10;;;10.07;;
4106;SDS011;21906;50.812;7.132;2023-08-17T12:01:36;10.37;;;9.47;;
4106;SDS011;21906;50.812;7.132;2023-08-17T12:04:06;10.23;;;9.33;;
4106;SDS011;21906;50.812;7.132;2023-08-17T12:06:32;10.47;;;9.37;;
4106;SDS011;21906;50.812;7.132;2023-08-17T12:08:58;11.97;;;10.40;;
4106;SDS011;21906;50.812;7.132;2023-08-17T12:11:24;9.90;;;8.90;;
4106;SDS011;21906;50.812;7.132;2023-08-17T12:13:50;9.33;;;8.53;;
4106;SDS011;21906;50.812;7.132;2023-08-17T12:16:17;9.83;;;9.03;;
4106;SDS011;21906;50.812;7.132;2023-08-17T12:18:53;9.37;;;8.63;;
4106;SDS011;21906;50.812;7.132;2023-08-17T12:21:19;9.67;;;8.87;;
4106;SDS011;21906;50.812;7.132;2023-08-17T12:23:46;9.33;;;8.60;;
4106;SDS011;21906;50.812;7.132;2023-08-17T12:26:19;10.97;;;10.07;;
4106;SDS011;21906;50.812;7.132;2023-08-17T12:28:48;10.40;;;9.40;;
4106;SDS011;21906;50.812;7.132;2023-08-17T12:31:20;9.30;;;8.40;;
4106;SDS011;21906;50.812;7.132;2023-08-17T12:33:46;8.77;;;8.03;;
4106;SDS011;21906;50.812;7.132;2023-08-17T12:36:12;9.27;;;8.47;;
4106;SDS011;21906;50.812;7.132;2023-08-17T12:38:38;9.63;;;8.93;;
4106;SDS011;21906;50.812;7.132;2023-08-17T12:41:09;9.97;;;9.00;;
4106;SDS011;21906;50.812;7.132;2023-08-17T12:43:36;10.40;;;9.50;;
4106;SDS011;21906;50.812;7.132;2023-08-17T12:46:02;9.00;;;8.23;;
4106;SDS011;21906;50.812;7.132;2023-08-17T12:48:28;10.73;;;9.80;;
4106;SDS011;21906;50.812;7.132;2023-08-17T12:50:54;11.00;;;10.20;;
4106;SDS011;21906;50.812;7.132;2023-08-17T12:53:19;11.20;;;10.10;;
4106;SDS011;21906;50.812;7.132;2023-08-17T12:55:45;11.00;;;10.00;;
4106;SDS011;21906;50.812;7.132;2023-08-17T12:58:11;11.27;;;10.17;;
4106;SDS011;21906;50.812;7.132;2023-08-17T13:00:37;9.63;;;8.93;;
4106;SDS011;21906;50.812;7.132;2023-08-17T13:03:03;10.77;;;9.87;;
4106;SDS011;21906;50.812;7.132;2023-08-17T13:05:29;12.13;;;10.87;;
4106;SDS011;21906;50.812;7.132;2023-08-17T13:07:54;12.13;;;11.13;;
4106;SDS011;21906;50.812;7.132;2023-08-17T13:10:20;11.00;;;10.00;;
4106;SDS011;21906;50.812;7.132;2023-08-17T13:12:46;11.57;;;10.50;;
4106;SDS011;21906;50.812;7.132;2023-08-17T13:15:12;10.23;;;9.40;;
4106;SDS011;21906;50.812;7.132;2023-08-17T13:17:38;12.33;;;11.13;;
4106;SDS011;21906;50.812;7.132;2023-08-17T13:20:04;11.10;;;10.20;;
4106;SDS011;21906;50.812;7.132;2023-08-17T13:22:31;12.53;;;11.43;;
4106;SDS011;21906;50.812;7.132;2023-08-17T13:24:57;13.80;;;12.53;;
4106;SDS011;21906;50.812;7.132;2023-08-17T13:27:23;10.87;;;9.87;;
4106;SDS011;21906;50.812;7.132;2023-08-17T13:29:48;10.17;;;9.33;;
4106;SDS011;21906;50.812;7.132;2023-08-17T13:32:14;12.20;;;11.07;;
4106;SDS011;21906;50.812;7.132;2023-08-17T13:34:40;12.50;;;11.43;;
4106;SDS011;21906;50.812;7.132;2023-08-17T13:37:06;12.53;;;11.17;;
4106;SDS011;21906;50.812;7.132;2023-08-17T13:39:32;11.40;;;10.50;;
4106;SDS011;21906;50.812;7.132;2023-08-17T13:41:58;10.70;;;9.70;;
4106;SDS011;21906;50.812;7.132;2023-08-17T13:44:23;11.30;;;10.23;;
4106;SDS011;21906;50.812;7.132;2023-08-17T13:46:49;10.47;;;9.67;;
4106;SDS011;21906;50.812;7.132;2023-08-17T13:49:15;12.53;;;11.40;;
4106;SDS011;21906;50.812;7.132;2023-08-17T13:51:40;12.20;;;11.10;;
4106;SDS011;21906;50.812;7.132;2023-08-17T13:54:06;12.60;;;10.60;;
4106;SDS011;21906;50.812;7.132;2023-08-17T13:56:32;10.60;;;9.70;;
4106;SDS011;21906;50.812;7.132;2023-08-17T13:58:58;11.50;;;10.53;;
4106;SDS011;21906;50.812;7.132;2023-08-17T14:01:23;11.00;;;10.10;;
4106;SDS011;21906;50.812;7.132;2023-08-17T14:03:49;12.23;;;11.10;;
4106;SDS011;21906;50.812;7.132;2023-08-17T14:06:15;11.50;;;10.50;;
4106;SDS011;21906;50.812;7.132;2023-08-17T14:08:41;9.33;;;8.47;;
4106;SDS011;21906;50.812;7.132;2023-08-17T14:11:06;10.87;;;10.07;;
4106;SDS011;21906;50.812;7.132;2023-08-17T14:13:32;10.40;;;9.63;;
4106;SDS011;21906;50.812;7.132;2023-08-17T14:15:59;10.40;;;9.57;;
4106;SDS011;21906;50.812;7.132;2023-08-17T14:18:25;11.50;;;10.50;;
4106;SDS011;21906;50.812;7.132;2023-08-17T14:20:51;12.30;;;11.10;;
4106;SDS011;21906;50.812;7.132;2023-08-17T14:23:17;12.17;;;11.10;;
4106;SDS011;21906;50.812;7.132;2023-08-17T14:25:42;11.63;;;10.10;;
4106;SDS011;21906;50.812;7.132;2023-08-17T14:28:08;9.97;;;9.37;;
4106;SDS011;21906;50.812;7.132;2023-08-17T14:30:34;10.00;;;9.30;;
4106;SDS011;21906;50.812;7.132;2023-08-17T14:33:00;9.33;;;8.73;;
4106;SDS011;21906;50.812;7.132;2023-08-17T14:35:28;9.53;;;8.80;;
4106;SDS011;21906;50.812;7.132;2023-08-17T14:37:54;8.83;;;8.03;;
4106;SDS011;21906;50.812;7.132;2023-08-17T14:40:23;9.50;;;8.90;;
4106;SDS011;21906;50.812;7.132;2023-08-17T14:42:48;8.87;;;8.27;;